createdAt,value
2023-03-13T00:00:22.370Z,3.900
2023-03-13T00:01:21.902Z,4.600
2023-03-13T00:02:22.782Z,4.300
2023-03-13T00:03:22.300Z,4.400
2023-03-13T00:04:21.885Z,3.900
2023-03-13T00:05:22.608Z,4.500
2023-03-13T00:06:22.338Z,4.300
2023-03-13T00:07:21.925Z,4.700
2023-03-13T00:08:22.681Z,4.300
2023-03-13T00:09:22.209Z,4.300
2023-03-13T00:10:22.744Z,4.500
2023-03-13T00:11:24.005Z,4.500
2023-03-13T00:12:22.547Z,4.200
2023-03-13T00:13:21.982Z,4.300
2023-03-13T00:14:22.497Z,3.800
2023-03-13T00:15:22.056Z,4.000
2023-03-13T00:16:22.725Z,4.000
2023-03-13T00:17:22.747Z,4.100
2023-03-13T00:18:22.260Z,3.800
2023-03-13T00:19:21.812Z,4.800
2023-03-13T00:20:22.281Z,4.100
2023-03-13T00:21:22.097Z,4.000
2023-03-13T00:22:22.589Z,4.500
2023-03-13T00:23:22.214Z,4.100
2023-03-13T00:24:21.836Z,4.200
2023-03-13T00:25:22.433Z,4.100
2023-03-13T00:26:22.049Z,3.800
2023-03-13T00:27:22.617Z,4.100
2023-03-13T00:28:22.169Z,4.000
2023-03-13T00:29:22.689Z,3.600
2023-03-13T00:30:22.243Z,3.800
2023-03-13T00:31:22.246Z,3.800
2023-03-13T00:32:22.584Z,4.300
2023-03-13T00:33:22.377Z,4.100
2023-03-13T00:34:22.054Z,4.000
2023-03-13T00:35:22.699Z,4.100
2023-03-13T00:36:22.488Z,3.700
2023-03-13T00:37:22.081Z,4.500
2023-03-13T00:38:22.600Z,4.000
2023-03-13T00:39:22.054Z,3.700
2023-03-13T00:40:22.596Z,3.900
2023-03-13T00:41:22.289Z,4.300
2023-03-13T00:42:21.796Z,4.000
2023-03-13T00:43:22.284Z,3.300
2023-03-13T00:44:21.856Z,4.000
2023-03-13T00:45:22.421Z,4.000
2023-03-13T00:46:22.218Z,4.100
2023-03-13T00:47:21.822Z,3.500
2023-03-13T00:48:22.364Z,4.300
2023-03-13T00:49:21.879Z,3.500
2023-03-13T00:50:22.347Z,3.600
2023-03-13T00:51:21.951Z,3.800
2023-03-13T00:52:22.501Z,3.700
2023-03-13T00:53:22.013Z,4.300
2023-03-13T00:54:22.553Z,3.700
2023-03-13T00:55:22.064Z,4.000
2023-03-13T00:56:22.676Z,4.000
2023-03-13T00:57:22.366Z,3.800
2023-03-13T00:58:22.025Z,4.100
2023-03-13T00:59:22.641Z,3.700
2023-03-13T01:00:22.197Z,3.300
2023-03-13T01:01:21.813Z,4.400
2023-03-13T01:02:22.607Z,3.600
2023-03-13T01:03:22.812Z,3.600
2023-03-13T01:04:21.825Z,3.700
2023-03-13T01:05:22.437Z,3.900
2023-03-13T01:06:22.228Z,3.500
2023-03-13T01:07:21.783Z,3.900
2023-03-13T01:08:22.364Z,4.000
2023-03-13T01:09:21.901Z,3.900
2023-03-13T01:10:22.538Z,3.800
2023-03-13T01:11:22.075Z,3.700
2023-03-13T01:12:22.633Z,4.100
2023-03-13T01:13:22.353Z,4.100
2023-03-13T01:14:21.832Z,3.600
2023-03-13T01:15:22.368Z,3.700
2023-03-13T01:16:22.102Z,3.900
2023-03-13T01:17:22.600Z,4.000
2023-03-13T01:18:22.105Z,3.800
2023-03-13T01:19:22.888Z,4.100
2023-03-13T01:20:22.500Z,4.000
2023-03-13T01:21:22.063Z,4.700
2023-03-13T01:22:22.534Z,3.800
2023-03-13T01:23:22.069Z,3.800
2023-03-13T01:24:22.546Z,3.900
2023-03-13T01:25:22.084Z,4.000
2023-03-13T01:26:22.610Z,4.000
2023-03-13T01:27:22.220Z,4.100
2023-03-13T01:28:22.710Z,4.000
2023-03-13T01:29:22.329Z,4.100
2023-03-13T01:30:21.984Z,3.800
2023-03-13T01:31:22.652Z,3.600
2023-03-13T01:32:22.397Z,3.900
2023-03-13T01:33:22.120Z,3.800
2023-03-13T01:34:22.643Z,3.600
2023-03-13T01:35:22.403Z,4.000
2023-03-13T01:36:22.194Z,3.400
2023-03-13T01:37:22.628Z,3.800
2023-03-13T01:38:22.121Z,3.600
2023-03-13T01:39:22.641Z,3.700
2023-03-13T01:40:22.219Z,3.900
2023-03-13T01:41:21.757Z,3.800
2023-03-13T01:42:22.309Z,4.000
2023-03-13T01:43:27.420Z,3.500
2023-03-13T01:44:22.213Z,3.700
2023-03-13T01:45:22.721Z,3.900
2023-03-13T01:46:22.412Z,3.700
2023-03-13T01:47:22.337Z,4.000
2023-03-13T01:48:22.235Z,3.600
2023-03-13T01:49:21.824Z,3.900
2023-03-13T01:50:22.600Z,3.800
2023-03-13T01:51:22.049Z,3.800
2023-03-13T01:52:22.560Z,3.600
2023-03-13T01:53:22.115Z,3.600
2023-03-13T01:54:22.569Z,3.300
2023-03-13T01:55:22.175Z,3.300
2023-03-13T01:56:22.796Z,3.800
2023-03-13T01:57:22.331Z,3.600
2023-03-13T01:58:21.928Z,3.900
2023-03-13T01:59:22.420Z,3.600
2023-03-13T02:00:21.905Z,4.000
2023-03-13T02:01:22.525Z,3.300
2023-03-13T02:02:22.480Z,4.200
2023-03-13T02:03:22.610Z,3.500
2023-03-13T02:04:22.134Z,3.500
2023-03-13T02:05:22.766Z,3.800
2023-03-13T02:06:22.378Z,3.000
2023-03-13T02:07:22.117Z,3.800
2023-03-13T02:08:22.601Z,3.500
2023-03-13T02:09:22.080Z,3.400
2023-03-13T02:10:22.609Z,3.700
2023-03-13T02:11:22.257Z,3.700
2023-03-13T02:12:21.769Z,3.200
2023-03-13T02:13:22.546Z,3.500
2023-03-13T02:14:22.481Z,3.100
2023-03-13T02:15:22.761Z,3.600
2023-03-13T02:16:22.671Z,3.600
2023-03-13T02:17:22.313Z,4.000
2023-03-13T02:18:21.920Z,3.600
2023-03-13T02:19:22.352Z,3.800
2023-03-13T02:20:21.955Z,3.800
2023-03-13T02:21:22.542Z,3.400
2023-03-13T02:22:22.186Z,3.700
2023-03-13T02:23:22.764Z,3.300
2023-03-13T02:24:22.300Z,3.900
2023-03-13T02:25:21.924Z,3.800
2023-03-13T02:26:21.863Z,3.400
2023-03-13T02:27:22.448Z,3.200
2023-03-13T02:28:21.978Z,3.200
2023-03-13T02:29:22.481Z,3.400
2023-03-13T02:30:21.992Z,3.300
2023-03-13T02:31:22.735Z,3.800
2023-03-13T02:32:22.594Z,3.000
2023-03-13T02:33:22.435Z,3.400
2023-03-13T02:34:21.926Z,3.400
2023-03-13T02:35:22.715Z,3.200
2023-03-13T02:36:22.433Z,3.300
2023-03-13T02:37:21.996Z,3.400
2023-03-13T02:38:22.561Z,3.300
2023-03-13T02:39:22.073Z,3.700
2023-03-13T02:40:22.633Z,2.900
2023-03-13T02:41:22.336Z,3.500
2023-03-13T02:42:21.901Z,3.300
2023-03-13T02:43:22.569Z,3.100
2023-03-13T02:44:22.293Z,3.800
2023-03-13T02:45:21.890Z,3.200
2023-03-13T02:46:22.439Z,3.300
2023-03-13T02:47:22.597Z,2.900
2023-03-13T02:48:22.199Z,3.500
2023-03-13T02:49:22.635Z,3.000
2023-03-13T02:50:22.229Z,3.400
2023-03-13T02:51:21.978Z,3.500
2023-03-13T02:52:22.548Z,3.400
2023-03-13T02:53:22.204Z,3.400
2023-03-13T02:54:22.653Z,3.500
2023-03-13T02:55:22.368Z,3.500
2023-03-13T02:56:21.919Z,3.200
2023-03-13T02:57:22.435Z,3.200
2023-03-13T02:58:22.037Z,3.400
2023-03-13T02:59:24.292Z,3.400
2023-03-13T03:00:21.876Z,3.500
2023-03-13T03:01:22.693Z,3.500
2023-03-13T03:02:22.222Z,3.600
2023-03-13T03:03:21.862Z,3.600
2023-03-13T03:04:22.709Z,3.300
2023-03-13T03:05:22.597Z,3.800
2023-03-13T03:06:22.218Z,3.100
2023-03-13T03:07:21.955Z,3.500
2023-03-13T03:08:22.573Z,3.200
2023-03-13T03:09:22.197Z,3.100
2023-03-13T03:10:21.851Z,3.100
2023-03-13T03:11:22.365Z,3.200
2023-03-13T03:12:21.889Z,3.200
2023-03-13T03:13:22.426Z,3.100
2023-03-13T03:14:21.916Z,3.400
2023-03-13T03:15:22.519Z,3.700
2023-03-13T03:16:22.271Z,3.200
2023-03-13T03:17:21.918Z,3.300
2023-03-13T03:18:22.464Z,3.100
2023-03-13T03:19:21.972Z,3.200
2023-03-13T03:20:22.446Z,3.000
2023-03-13T03:21:21.885Z,3.200
2023-03-13T03:22:22.400Z,3.500
2023-03-13T03:23:21.928Z,3.100
2023-03-13T03:24:22.456Z,3.900
2023-03-13T03:25:21.973Z,2.900
2023-03-13T03:26:22.676Z,3.000
2023-03-13T03:27:22.188Z,3.100
2023-03-13T03:28:22.671Z,3.100
2023-03-13T03:29:22.189Z,3.700
2023-03-13T03:30:22.653Z,3.200
2023-03-13T03:31:22.202Z,3.200
2023-03-13T03:32:22.007Z,3.100
2023-03-13T03:33:22.724Z,3.600
2023-03-13T03:34:22.307Z,4.000
2023-03-13T03:35:21.904Z,3.200
2023-03-13T03:36:22.609Z,3.400
2023-03-13T03:37:22.097Z,3.900
2023-03-13T03:38:22.677Z,3.600
2023-03-13T03:39:22.240Z,3.700
2023-03-13T03:40:21.913Z,3.700
2023-03-13T03:41:22.481Z,3.800
2023-03-13T03:42:22.066Z,3.100
2023-03-13T03:43:22.523Z,3.500
2023-03-13T03:44:22.047Z,2.900
2023-03-13T03:45:22.766Z,3.600
2023-03-13T03:46:22.544Z,3.700
2023-03-13T03:47:22.312Z,3.700
2023-03-13T03:48:21.810Z,3.500
2023-03-13T03:49:22.382Z,3.300
2023-03-13T03:50:21.909Z,4.000
2023-03-13T03:51:22.467Z,3.700
2023-03-13T03:52:22.012Z,3.300
2023-03-13T03:53:22.652Z,3.500
2023-03-13T03:54:22.333Z,3.800
2023-03-13T03:55:21.904Z,3.300
2023-03-13T03:56:22.651Z,3.200
2023-03-13T03:57:22.258Z,3.400
2023-03-13T03:58:21.853Z,3.300
2023-03-13T03:59:22.433Z,3.300
2023-03-13T04:00:22.058Z,3.300
2023-03-13T04:01:22.621Z,3.300
2023-03-13T04:02:22.342Z,3.400
2023-03-13T04:03:22.179Z,3.200
2023-03-13T04:04:22.010Z,3.200
2023-03-13T04:05:22.701Z,3.400
2023-03-13T04:06:22.194Z,3.200
2023-03-13T04:07:21.894Z,2.900
2023-03-13T04:08:22.321Z,3.400
2023-03-13T04:09:21.837Z,3.500
2023-03-13T04:10:22.384Z,3.500
2023-03-13T04:11:22.069Z,3.600
2023-03-13T04:12:22.559Z,3.000
2023-03-13T04:13:22.128Z,3.300
2023-03-13T04:14:22.933Z,3.400
2023-03-13T04:15:22.677Z,2.900
2023-03-13T04:16:26.946Z,3.600
2023-03-13T04:17:27.140Z,3.300
2023-03-13T04:18:25.679Z,3.200
2023-03-13T04:19:22.250Z,3.300
2023-03-13T04:20:22.016Z,3.500
2023-03-13T04:21:22.640Z,3.300
2023-03-13T04:22:22.144Z,3.400
2023-03-13T04:23:22.676Z,4.100
2023-03-13T04:24:22.224Z,3.400
2023-03-13T04:25:22.947Z,2.900
2023-03-13T04:26:23.142Z,2.900
2023-03-13T04:27:21.889Z,3.200
2023-03-13T04:28:22.381Z,3.100
2023-03-13T04:29:21.970Z,2.700
2023-03-13T04:30:22.593Z,3.200
2023-03-13T04:31:22.423Z,3.000
2023-03-13T04:32:21.930Z,2.900
2023-03-13T04:33:22.881Z,3.000
2023-03-13T04:34:22.409Z,3.000
2023-03-13T04:35:22.228Z,3.400
2023-03-13T04:36:22.217Z,3.300
2023-03-13T04:37:22.735Z,3.500
2023-03-13T04:38:22.274Z,3.500
2023-03-13T04:39:21.852Z,3.200
2023-03-13T04:40:22.344Z,3.000
2023-03-13T04:41:21.989Z,2.900
2023-03-13T04:42:22.564Z,2.800
2023-03-13T04:43:22.323Z,3.100
2023-03-13T04:44:21.876Z,3.200
2023-03-13T04:45:22.516Z,3.300
2023-03-13T04:46:22.219Z,3.100
2023-03-13T04:47:21.808Z,3.600
2023-03-13T04:48:22.413Z,3.300
2023-03-13T04:49:24.860Z,2.900
2023-03-13T04:50:22.426Z,2.800
2023-03-13T04:51:21.881Z,2.700
2023-03-13T04:52:22.480Z,2.700
2023-03-13T04:53:23.369Z,3.200
2023-03-13T04:54:21.982Z,3.000
2023-03-13T04:55:22.470Z,3.000
2023-03-13T04:56:29.543Z,2.900
2023-03-13T04:57:22.313Z,2.700
2023-03-13T04:58:21.865Z,3.000
2023-03-13T04:59:22.669Z,3.300
2023-03-13T05:00:22.153Z,3.100
2023-03-13T05:01:22.903Z,3.200
2023-03-13T05:02:22.906Z,3.300
2023-03-13T05:03:22.477Z,3.300
2023-03-13T05:04:22.052Z,2.600
2023-03-13T05:05:25.049Z,2.900
2023-03-13T05:06:21.789Z,2.900
2023-03-13T05:07:22.298Z,3.000
2023-03-13T05:08:21.851Z,3.000
2023-03-13T05:09:22.332Z,3.100
2023-03-13T05:10:21.974Z,3.200
2023-03-13T05:11:22.682Z,3.000
2023-03-13T05:12:22.253Z,3.100
2023-03-13T05:13:21.769Z,3.200
2023-03-13T05:14:22.267Z,2.500
2023-03-13T05:15:21.921Z,3.100
2023-03-13T05:16:22.656Z,2.900
2023-03-13T05:17:22.565Z,3.200
2023-03-13T05:19:22.576Z,3.100
2023-03-13T05:20:22.222Z,2.700
2023-03-13T05:21:22.724Z,2.900
2023-03-13T05:22:22.337Z,2.600
2023-03-13T05:23:21.832Z,3.100
2023-03-13T05:24:22.383Z,2.700
2023-03-13T05:25:21.916Z,2.700
2023-03-13T05:26:22.530Z,3.100
2023-03-13T05:27:22.695Z,3.000
2023-03-13T05:28:22.285Z,3.000
2023-03-13T05:29:21.703Z,2.900
2023-03-13T05:30:22.314Z,3.000
2023-03-13T05:31:22.194Z,3.000
2023-03-13T05:32:21.893Z,2.700
2023-03-13T05:33:22.655Z,3.100
2023-03-13T05:34:22.447Z,2.900
2023-03-13T05:35:22.190Z,2.600
2023-03-13T05:36:21.824Z,3.100
2023-03-13T05:37:22.807Z,3.100
2023-03-13T05:38:22.587Z,3.100
2023-03-13T05:39:22.136Z,2.700
2023-03-13T05:40:22.759Z,2.900
2023-03-13T05:41:22.302Z,2.900
2023-03-13T05:42:21.888Z,3.000
2023-03-13T05:43:22.504Z,3.100
2023-03-13T05:44:22.158Z,3.200
2023-03-13T05:45:22.794Z,3.300
2023-03-13T05:46:22.521Z,3.100
2023-03-13T05:47:22.431Z,3.200
2023-03-13T05:48:21.954Z,3.000
2023-03-13T05:49:22.472Z,2.700
2023-03-13T05:50:22.017Z,3.400
2023-03-13T05:51:22.509Z,3.000
2023-03-13T05:52:22.089Z,3.400
2023-03-13T05:53:22.669Z,2.900
2023-03-13T05:54:22.189Z,2.900
2023-03-13T05:55:22.678Z,3.300
2023-03-13T05:56:22.229Z,3.200
2023-03-13T05:57:21.821Z,3.300
2023-03-13T05:58:22.324Z,3.000
2023-03-13T05:59:21.869Z,3.100
2023-03-13T06:00:22.653Z,3.100
2023-03-13T06:01:22.260Z,3.000
2023-03-13T06:02:21.755Z,2.900
2023-03-13T06:03:22.276Z,3.400
2023-03-13T06:04:22.462Z,3.000
2023-03-13T06:05:22.673Z,2.900
2023-03-13T06:06:22.188Z,2.900
2023-03-13T06:07:22.780Z,2.700
2023-03-13T06:08:22.324Z,3.000
2023-03-13T06:09:21.859Z,2.800
2023-03-13T06:10:22.373Z,3.500
2023-03-13T06:11:21.925Z,3.300
2023-03-13T06:12:22.468Z,3.500
2023-03-13T06:13:31.759Z,3.300
2023-03-13T06:14:22.276Z,2.800
2023-03-13T06:15:21.893Z,3.000
2023-03-13T06:16:22.634Z,3.200
2023-03-13T06:17:22.294Z,3.100
2023-03-13T06:18:21.811Z,3.500
2023-03-13T06:19:22.459Z,3.400
2023-03-13T06:20:22.061Z,3.100
2023-03-13T06:21:22.628Z,3.100
2023-03-13T06:22:22.372Z,3.300
2023-03-13T06:23:21.916Z,3.800
2023-03-13T06:24:22.422Z,3.300
2023-03-13T06:25:21.986Z,3.200
2023-03-13T06:26:22.505Z,3.400
2023-03-13T06:27:23.708Z,3.400
2023-03-13T06:28:22.211Z,3.400
2023-03-13T06:29:21.800Z,3.000
2023-03-13T06:30:22.441Z,2.900
2023-03-13T06:31:22.162Z,2.900
2023-03-13T06:32:22.363Z,3.500
2023-03-13T06:33:22.521Z,3.300
2023-03-13T06:34:24.395Z,3.400
2023-03-13T06:35:22.171Z,3.200
2023-03-13T06:36:27.719Z,3.300
2023-03-13T06:37:22.365Z,3.200
2023-03-13T06:38:21.926Z,3.600
2023-03-13T06:39:22.596Z,3.100
2023-03-13T06:40:22.206Z,3.400
2023-03-13T06:41:22.810Z,3.200
2023-03-13T06:42:22.392Z,3.000
2023-03-13T06:43:21.965Z,3.300
2023-03-13T06:44:22.616Z,3.000
2023-03-13T06:45:22.256Z,3.300
2023-03-13T06:46:21.853Z,3.300
2023-03-13T06:47:22.906Z,2.800
2023-03-13T06:48:22.505Z,3.000
2023-03-13T06:49:22.018Z,3.400
2023-03-13T06:50:22.553Z,3.300
2023-03-13T06:51:22.464Z,3.400
2023-03-13T06:52:24.714Z,3.000
2023-03-13T06:53:22.166Z,3.100
2023-03-13T06:54:22.690Z,3.500
2023-03-13T06:55:22.274Z,3.200
2023-03-13T06:56:21.822Z,3.300
2023-03-13T06:57:22.341Z,3.300
2023-03-13T06:58:31.939Z,3.300
2023-03-13T06:59:22.702Z,3.300
2023-03-13T07:00:22.389Z,3.900
2023-03-13T07:01:22.210Z,3.300
2023-03-13T07:02:21.920Z,2.900
2023-03-13T07:03:22.524Z,3.300
2023-03-13T07:04:22.516Z,3.000
2023-03-13T07:05:22.158Z,3.000
2023-03-13T07:06:22.624Z,2.900
2023-03-13T07:07:31.075Z,3.300
2023-03-13T07:08:22.146Z,3.200
2023-03-13T07:09:22.648Z,2.800
2023-03-13T07:10:22.873Z,3.200
2023-03-13T07:11:21.968Z,2.500
2023-03-13T07:12:22.501Z,2.900
2023-03-13T07:13:22.175Z,3.000
2023-03-13T07:14:31.608Z,2.700
2023-03-13T07:15:22.147Z,3.100
2023-03-13T07:16:22.882Z,3.000
2023-03-13T07:17:22.651Z,3.000
2023-03-13T07:18:22.421Z,2.800
2023-03-13T07:19:21.957Z,2.400
2023-03-13T07:20:22.605Z,3.000
2023-03-13T07:21:22.381Z,2.800
2023-03-13T07:22:21.940Z,3.100
2023-03-13T07:23:22.671Z,2.700
2023-03-13T07:24:22.431Z,2.700
2023-03-13T07:25:22.172Z,3.100
2023-03-13T07:26:22.755Z,2.600
2023-03-13T07:27:27.480Z,3.000
2023-03-13T07:28:22.180Z,2.800
2023-03-13T07:29:22.743Z,2.500
2023-03-13T07:30:22.383Z,3.100
2023-03-13T07:31:22.047Z,2.900
2023-03-13T07:32:22.888Z,2.700
2023-03-13T07:33:21.947Z,3.000
2023-03-13T07:34:22.500Z,2.900
2023-03-13T07:35:22.124Z,3.000
2023-03-13T07:36:22.804Z,2.500
2023-03-13T07:37:22.947Z,2.700
2023-03-13T07:38:22.698Z,2.600
2023-03-13T07:39:22.246Z,2.800
2023-03-13T07:40:21.914Z,2.900
2023-03-13T07:41:22.459Z,2.600
2023-03-13T07:42:21.976Z,2.500
2023-03-13T07:43:22.659Z,2.600
2023-03-13T07:44:22.281Z,2.800
2023-03-13T07:45:21.792Z,2.700
2023-03-13T07:46:22.612Z,2.600
2023-03-13T07:47:22.666Z,2.700
2023-03-13T07:48:22.765Z,3.000
2023-03-13T07:49:23.209Z,2.600
2023-03-13T07:50:22.902Z,2.800
2023-03-13T07:51:30.449Z,3.200
2023-03-13T07:53:30.819Z,2.700
2023-03-13T07:54:27.056Z,3.100
2023-03-13T07:55:27.653Z,2.800
2023-03-13T07:56:27.555Z,3.200
2023-03-13T07:57:27.139Z,2.600
2023-03-13T07:58:27.745Z,2.700
2023-03-13T07:59:27.793Z,2.700
2023-03-13T08:00:27.852Z,2.600
2023-03-13T08:01:29.181Z,2.400
2023-03-13T08:02:27.338Z,3.100
2023-03-13T08:03:27.494Z,2.200
2023-03-13T08:04:27.615Z,2.500
2023-03-13T08:05:27.251Z,2.300
2023-03-13T08:06:26.931Z,2.700
2023-03-13T08:07:27.419Z,2.500
2023-03-13T08:08:26.995Z,2.600
2023-03-13T08:09:27.888Z,2.800
2023-03-13T08:10:27.906Z,2.600
2023-03-13T08:11:27.586Z,4.000
2023-03-13T08:12:27.128Z,3.400
2023-03-13T08:13:27.724Z,2.800
2023-03-13T08:14:27.528Z,2.900
2023-03-13T08:15:27.196Z,3.100
2023-03-13T08:16:27.849Z,5.600
2023-03-13T08:17:27.794Z,3.800
2023-03-13T08:18:27.354Z,3.900
2023-03-13T08:19:26.881Z,5.000
2023-03-13T08:20:27.526Z,5.700
2023-03-13T08:21:27.101Z,3.900
2023-03-13T08:22:27.625Z,2.500
2023-03-13T08:23:27.239Z,5.400
2023-03-13T08:24:26.796Z,5.300
2023-03-13T08:25:27.449Z,5.000
2023-03-13T08:26:26.983Z,4.100
2023-03-13T08:27:27.593Z,3.800
2023-03-13T08:28:27.184Z,4.600
2023-03-13T08:29:27.744Z,3.000
2023-03-13T08:30:27.334Z,5.400
2023-03-13T08:31:27.019Z,4.200
2023-03-13T08:32:27.563Z,4.300
2023-03-13T08:33:27.300Z,4.800
2023-03-13T08:34:27.023Z,3.600
2023-03-13T08:35:27.729Z,4.300
2023-03-13T08:36:27.419Z,3.000
2023-03-13T08:37:26.896Z,3.400
2023-03-13T08:38:27.479Z,2.700
2023-03-13T08:39:27.033Z,4.600
2023-03-13T08:40:27.656Z,3.800
2023-03-13T08:41:27.298Z,4.600
2023-03-13T08:42:26.789Z,4.700
2023-03-13T08:43:27.551Z,5.100
2023-03-13T08:44:27.014Z,4.800
2023-03-13T08:45:27.833Z,3.100
2023-03-13T08:46:27.710Z,6.100
2023-03-13T08:47:27.282Z,4.100
2023-03-13T08:48:26.819Z,4.700
2023-03-13T08:49:27.489Z,5.100
2023-03-13T08:50:27.097Z,3.900
2023-03-13T08:51:27.742Z,5.400
2023-03-13T08:52:27.261Z,3.600
2023-03-13T08:53:26.898Z,2.800
2023-03-13T08:54:27.492Z,3.600
2023-03-13T08:55:27.061Z,4.300
2023-03-13T08:56:27.654Z,3.500
2023-03-13T08:57:27.248Z,3.900
2023-03-13T08:58:26.771Z,2.800
2023-03-13T08:59:27.381Z,2.200
2023-03-13T09:00:27.052Z,3.100
2023-03-13T09:01:27.625Z,2.700
2023-03-13T09:02:27.312Z,5.300
2023-03-13T09:03:27.004Z,17.500
2023-03-13T09:04:28.048Z,11.800
2023-03-13T09:05:27.676Z,12.100
2023-03-13T09:06:30.233Z,8.100
2023-03-13T09:07:26.734Z,20.400
2023-03-13T09:08:27.285Z,11.100
2023-03-13T09:09:27.024Z,17.100
2023-03-13T09:10:27.620Z,10.500
2023-03-13T09:11:27.205Z,14.300
2023-03-13T09:12:36.519Z,5.300
2023-03-13T09:13:27.180Z,2.000
2023-03-13T09:14:27.742Z,2.100
2023-03-13T09:15:27.372Z,2.000
2023-03-13T09:16:27.151Z,2.000
2023-03-13T09:17:27.721Z,2.000
2023-03-13T09:18:27.520Z,2.100
2023-03-13T09:19:27.349Z,2.100
2023-03-13T09:20:31.801Z,2.100
2023-03-13T09:21:27.405Z,2.100
2023-03-13T09:22:27.010Z,2.400
2023-03-13T09:23:27.609Z,2.100
2023-03-13T09:24:27.345Z,2.300
2023-03-13T09:25:26.990Z,2.700
2023-03-13T09:26:27.575Z,2.200
2023-03-13T09:27:32.104Z,2.300
2023-03-13T09:28:27.844Z,2.800
2023-03-13T09:29:27.501Z,3.100
2023-03-13T09:30:27.164Z,3.000
2023-03-13T09:31:28.004Z,2.200
2023-03-13T09:32:27.158Z,2.200
2023-03-13T09:33:27.732Z,1.800
2023-03-13T09:34:27.289Z,2.300
2023-03-13T09:35:27.055Z,2.100
2023-03-13T09:36:27.904Z,2.700
2023-03-13T09:37:27.493Z,3.300
2023-03-13T09:38:27.044Z,2.500
2023-03-13T09:39:27.589Z,4.000
2023-03-13T09:40:27.159Z,3.100
2023-03-13T09:41:32.735Z,3.000
2023-03-13T09:42:27.710Z,2.800
2023-03-13T09:43:27.454Z,2.800
2023-03-13T09:44:27.222Z,2.300
2023-03-13T09:45:26.904Z,2.000
2023-03-13T09:46:27.569Z,1.600
2023-03-13T09:47:27.572Z,1.800
2023-03-13T09:48:27.126Z,1.700
2023-03-13T09:49:27.782Z,1.500
2023-03-13T09:50:27.625Z,1.800
2023-03-13T09:51:27.415Z,1.700
2023-03-13T09:52:26.996Z,1.800
2023-03-13T09:53:27.624Z,1.900
2023-03-13T09:54:27.197Z,1.000
2023-03-13T09:55:26.888Z,1.200
2023-03-13T09:56:27.412Z,1.000
2023-03-13T09:57:27.114Z,1.000
2023-03-13T09:58:27.772Z,1.100
2023-03-13T09:59:27.328Z,1.000
2023-03-13T10:00:27.096Z,1.300
2023-03-13T10:01:26.912Z,1.000
2023-03-13T10:02:27.636Z,0.700
2023-03-13T10:03:27.294Z,0.800
2023-03-13T10:04:27.189Z,0.900
2023-03-13T10:05:27.766Z,0.800
2023-03-13T10:06:27.303Z,0.800
2023-03-13T10:07:26.895Z,0.900
2023-03-13T10:08:27.498Z,0.900
2023-03-13T10:09:27.159Z,0.700
2023-03-13T10:10:28.534Z,0.700
2023-03-13T10:11:27.165Z,0.800
2023-03-13T10:12:27.740Z,1.100
2023-03-13T10:13:27.269Z,1.100
2023-03-13T10:14:26.818Z,0.900
2023-03-13T10:15:27.359Z,1.100
2023-03-13T10:16:27.130Z,1.200
2023-03-13T10:17:27.829Z,0.800
2023-03-13T10:18:27.666Z,1.100
2023-03-13T10:19:27.350Z,1.100
2023-03-13T10:20:27.009Z,1.000
2023-03-13T10:21:27.741Z,1.300
2023-03-13T10:22:27.345Z,0.600
2023-03-13T10:23:27.098Z,0.900
2023-03-13T10:24:26.970Z,1.200
2023-03-13T10:25:27.714Z,1.100
2023-03-13T10:26:27.272Z,0.900
2023-03-13T10:27:26.808Z,0.900
2023-03-13T10:28:27.392Z,0.900
2023-03-13T10:29:26.933Z,1.000
2023-03-13T10:30:27.681Z,0.900
2023-03-13T10:31:27.536Z,1.200
2023-03-13T10:32:27.237Z,1.100
2023-03-13T10:33:28.007Z,0.900
2023-03-13T10:34:27.719Z,0.700
2023-03-13T10:35:27.364Z,1.200
2023-03-13T10:36:27.309Z,1.300
2023-03-13T10:37:26.819Z,1.100
2023-03-13T10:38:27.537Z,1.200
2023-03-13T10:39:27.061Z,1.600
2023-03-13T10:40:27.735Z,1.200
2023-03-13T10:41:27.346Z,0.900
2023-03-13T10:42:26.856Z,1.000
2023-03-13T10:43:27.581Z,1.000
2023-03-13T10:44:27.357Z,1.100
2023-03-13T10:45:26.909Z,1.100
2023-03-13T10:46:27.738Z,1.200
2023-03-13T10:47:27.514Z,1.400
2023-03-13T10:48:27.155Z,1.100
2023-03-13T10:49:26.741Z,0.900
2023-03-13T10:50:27.413Z,1.300
2023-03-13T10:51:26.988Z,1.100
2023-03-13T10:52:27.617Z,1.200
2023-03-13T10:53:27.270Z,1.200
2023-03-13T10:54:26.757Z,1.000
2023-03-13T10:55:27.412Z,1.000
2023-03-13T10:56:26.999Z,1.300
2023-03-13T10:57:27.565Z,1.100
2023-03-13T10:58:27.148Z,1.200
2023-03-13T10:59:27.755Z,1.200
2023-03-13T11:00:27.393Z,1.100
2023-03-13T11:01:26.950Z,1.300
2023-03-13T11:02:27.659Z,1.400
2023-03-13T11:03:28.041Z,1.400
2023-03-13T11:04:27.879Z,1.200
2023-03-13T11:05:29.757Z,1.500
2023-03-13T11:06:27.325Z,1.200
2023-03-13T11:07:26.934Z,1.100
2023-03-13T11:08:27.674Z,1.200
2023-03-13T11:09:27.665Z,1.400
2023-03-13T11:10:27.341Z,1.200
2023-03-13T11:11:26.995Z,1.400
2023-03-13T11:12:27.617Z,1.400
2023-03-13T11:13:35.947Z,1.100
2023-03-13T11:14:26.908Z,1.400
2023-03-13T11:15:27.814Z,1.300
2023-03-13T11:16:27.729Z,1.200
2023-03-13T11:17:27.346Z,1.200
2023-03-13T11:18:27.038Z,1.300
2023-03-13T11:19:27.670Z,1.400
2023-03-13T11:20:27.504Z,1.200
2023-03-13T11:21:33.170Z,1.400
2023-03-13T11:22:26.870Z,1.100
2023-03-13T11:23:27.406Z,1.500
2023-03-13T11:24:26.856Z,1.500
2023-03-13T11:25:31.812Z,1.400
2023-03-13T11:26:27.340Z,1.300
2023-03-13T11:27:31.920Z,1.400
2023-03-13T11:28:27.780Z,1.700
2023-03-13T11:29:27.428Z,1.300
2023-03-13T11:30:27.378Z,1.400
2023-03-13T11:31:27.069Z,1.400
2023-03-13T11:32:27.982Z,1.700
2023-03-13T11:33:27.889Z,1.300
2023-03-13T11:34:27.734Z,1.200
2023-03-13T11:35:27.406Z,1.300
2023-03-13T11:36:27.155Z,1.400
2023-03-13T11:37:27.801Z,1.800
2023-03-13T11:38:27.701Z,1.800
2023-03-13T11:39:27.338Z,1.400
2023-03-13T11:40:26.949Z,1.400
2023-03-13T11:41:27.568Z,1.400
2023-03-13T11:42:27.534Z,1.300
2023-03-13T11:43:37.062Z,1.600
2023-03-13T11:45:29.001Z,1.500
2023-03-13T11:46:30.525Z,1.600
2023-03-13T11:47:29.656Z,1.500
2023-03-13T11:48:29.244Z,1.500
2023-03-13T11:49:28.860Z,1.600
2023-03-13T11:50:29.460Z,1.600
2023-03-13T11:51:29.647Z,1.600
2023-03-13T11:52:29.392Z,1.600
2023-03-13T11:53:29.323Z,1.600
2023-03-13T11:54:29.376Z,1.500
2023-03-13T11:55:28.964Z,1.600
2023-03-13T11:56:29.583Z,1.300
2023-03-13T11:57:29.320Z,1.900
2023-03-13T11:58:28.977Z,1.800
2023-03-13T11:59:29.606Z,2.100
2023-03-13T12:00:29.414Z,1.800
2023-03-13T12:01:29.316Z,1.600
2023-03-13T12:02:29.079Z,1.500
2023-03-13T12:03:29.849Z,1.600
2023-03-13T12:04:29.774Z,1.900
2023-03-13T12:05:29.833Z,1.900
2023-03-13T12:06:38.789Z,1.800
2023-03-13T12:07:29.351Z,1.800
2023-03-13T12:08:29.001Z,2.000
2023-03-13T12:09:29.687Z,2.200
2023-03-13T12:10:29.573Z,1.800
2023-03-13T12:11:29.299Z,1.800
2023-03-13T12:12:29.145Z,2.200
2023-03-13T12:13:29.937Z,1.900
2023-03-13T12:14:29.805Z,2.100
2023-03-13T12:15:31.878Z,1.700
2023-03-13T12:16:29.600Z,2.000
2023-03-13T12:17:29.475Z,2.000
2023-03-13T12:18:29.541Z,1.700
2023-03-13T12:19:29.129Z,1.800
2023-03-13T12:20:30.000Z,1.800
2023-03-13T12:21:29.729Z,1.900
2023-03-13T12:22:29.540Z,1.700
2023-03-13T12:23:29.137Z,2.000
2023-03-13T12:24:29.939Z,2.000
2023-03-13T12:25:29.850Z,1.700
2023-03-13T12:26:29.940Z,2.000
2023-03-13T12:27:29.550Z,1.800
2023-03-13T12:28:29.385Z,2.300
2023-03-13T12:29:29.196Z,1.700
2023-03-13T12:30:28.962Z,2.000
2023-03-13T12:31:29.808Z,1.800
2023-03-13T12:32:29.510Z,1.700
2023-03-13T12:33:29.265Z,2.200
2023-03-13T12:34:29.104Z,2.000
2023-03-13T12:35:29.773Z,2.000
2023-03-13T12:36:29.672Z,2.000
2023-03-13T12:37:29.576Z,2.200
2023-03-13T12:38:29.289Z,2.300
2023-03-13T12:39:29.156Z,2.400
2023-03-13T12:40:28.870Z,1.800
2023-03-13T12:41:29.392Z,2.000
2023-03-13T12:42:29.017Z,2.000
2023-03-13T12:43:29.659Z,2.200
2023-03-13T12:44:34.742Z,2.000
2023-03-13T12:45:29.549Z,2.300
2023-03-13T12:46:29.704Z,2.300
2023-03-13T12:47:29.918Z,2.000
2023-03-13T12:48:29.727Z,1.800
2023-03-13T12:49:29.455Z,1.900
2023-03-13T12:50:29.113Z,2.500
2023-03-13T12:51:29.632Z,2.200
2023-03-13T12:52:29.327Z,2.200
2023-03-13T12:53:29.076Z,2.000
2023-03-13T12:54:29.883Z,1.700
2023-03-13T12:55:29.538Z,2.200